Flinter Rose — PBUB — position and weather

sailwx.info

Track history (hours):
 
Tides and Currents Weather Stations Pressure Air Temp Water Temp Dewpoint Dewpoint Depression Visibility Wind Speed Wind Dir Waves Ship Positions

Flinter Rose

Last reported at 2014-Sep-19 21:33 UTC. Time now 2014-Sep-19 23:55 UTC.
Position N 38°05' E 001°28'.

Length 101 m; draft 6.5 m.

Type: Cargo ship. MMSI: 246227000.

Date/timePositionNaut miles runAvg speedWind from/ knotsBaromVisibWave heightAir tempDewpointWater temp
2014-Sep-19 21:33N 38°05' E 001°28'1310.1
2014-Sep-19 20:16N 37°59' E 001°14'810.1
2014-Sep-19 19:32N 37°55' E 001°06'2010.1
2014-Sep-19 17:32N 37°45' E 000°44'1010.4
2014-Sep-19 16:32N 37°39' E 000°32'1010.5
2014-Sep-19 15:33N 37°34' E 000°21'1010.4
2014-Sep-19 14:33N 37°29' E 000°10'1010.3
2014-Sep-19 13:33N 37°24' W 000°01'1110.2
2014-Sep-19 12:31N 37°18' W 000°13'3210.1
2014-Sep-19 09:21N 37°02' W 000°47'810.1
2014-Sep-19 08:34N 36°58' W 000°56'22511.1
2014-Sep-18 12:13N 35°58' W 005°26'  
2014-Sep-12 23:16N 50°36' E 000°21'6 7.7
2014-Sep-12 22:33N 50°37' E 000°30'9 9.0
2014-Sep-12 21:33N 50°42' E 000°42'1111.1
2014-Sep-12 20:32N 50°48' E 000°57'2811.8
2014-Sep-12 18:09N 51°07' E 001°31'6 9.6
2014-Sep-12 17:33N 51°10' E 001°38'9 8.8
2014-Sep-12 16:34N 51°16' E 001°48'8 8.1
2014-Sep-12 15:33N 51°23' E 001°56'8 7.6
2014-Sep-12 14:31N 51°23' E 002°09'8 8.7
2014-Sep-12 13:33N 51°22' E 002°22'9 9.5
2014-Sep-12 12:33N 51°23' E 002°37'1110.1
2014-Sep-12 11:29N 51°23' E 002°54'1211.6
2014-Sep-12 10:26N 51°25' E 003°14'1011.7
2014-Sep-12 09:33N 51°25' E 003°30'1111.3
2014-Sep-12 08:34N 51°21' E 003°47'2 2.5
2014-Sep-12 07:33N 51°19' E 003°49'4 4.0
2014-Sep-12 06:33N 51°15' E 003°50'3 2.5
2014-Sep-12 05:33N 51°13' E 003°48'3 2.3
2014-Sep-12 04:29N 51°11' E 003°48'0 0.0
2014-Sep-12 03:32N 51°11' E 003°48'0 0.0
2014-Sep-12 02:30N 51°11' E 003°48'0 0.0
2014-Sep-12 01:32N 51°11' E 003°48'0 0.0
2014-Sep-12 00:28N 51°11' E 003°48'0 0.0
2014-Sep-11 23:32N 51°11' E 003°48'0 0.0
2014-Sep-11 22:30N 51°11' E 003°48'0 0.0
2014-Sep-11 21:32N 51°11' E 003°48'0 0.0
2014-Sep-11 20:31N 51°11' E 003°48'0 0.0
2014-Sep-11 19:28N 51°11' E 003°48'0 0.0
2014-Sep-11 18:33N 51°11' E 003°48'0 0.0
2014-Sep-11 17:32N 51°11' E 003°48'0 0.0
2014-Sep-11 16:29N 51°11' E 003°48'0 0.0
2014-Sep-11 15:32N 51°11' E 003°48'0 0.0
2014-Sep-11 14:28N 51°11' E 003°48'0 0.0
2014-Sep-11 13:32N 51°11' E 003°48'0 0.0
2014-Sep-11 12:32N 51°11' E 003°48'0 0.0
2014-Sep-11 11:30N 51°11' E 003°48'0 0.0
2014-Sep-11 10:33N 51°11' E 003°48'0 0.0
2014-Sep-11 09:32N 51°11' E 003°48'0 0.0
2014-Sep-11 08:31N 51°11' E 003°48'0 0.0
2014-Sep-11 07:31N 51°11' E 003°48'0 0.0
2014-Sep-11 06:31N 51°11' E 003°48'0 0.0
2014-Sep-11 05:29N 51°11' E 003°48'0 0.0
2014-Sep-11 04:33N 51°11' E 003°48'0 0.0
2014-Sep-11 03:28N 51°11' E 003°48'0 0.0
2014-Sep-11 02:31N 51°11' E 003°48'0 0.0
2014-Sep-11 01:30N 51°11' E 003°48'0 0.0
2014-Sep-11 00:29N 51°11' E 003°48'0 0.0
2014-Sep-10 23:29N 51°11' E 003°48'0 0.0
2014-Sep-10 22:32N 51°11' E 003°48'0 0.0
2014-Sep-10 21:26N 51°11' E 003°48'3 3.7
2014-Sep-10 20:33N 51°14' E 003°48'6 5.9
2014-Sep-10 19:34N 51°20' E 003°49'1 0.9
2014-Sep-10 18:33N 51°21' E 003°49'5 5.0
2014-Sep-10 17:33N 51°24' E 003°43'5 4.8
2014-Sep-10 16:33N 51°26' E 003°36'7 7.2
2014-Sep-10 15:33N 51°31' E 003°27'1110.5
2014-Sep-10 14:33N 51°40' E 003°19'24 7.7
2014-Sep-10 11:26N 51°52' E 002°45'6513.1
2014-Sep-10 06:29N 52°55' E 002°26'6410.7
2014-Sep-10 00:28N 53°40' E 001°08'1111.7
2014-Sep-09 23:31N 53°36' E 000°50'1212.2
2014-Sep-09 22:33N 53°33' E 000°31'1211.9
2014-Sep-09 21:34N 53°32' E 000°12'  
Track history (hours):
 
Tides and Currents Weather Stations Pressure Air Temp Water Temp Dewpoint Dewpoint Depression Visibility Wind Speed Wind Dir Waves Ship Positions

Flinter Rose

Last reported at 2014-Sep-19 21:33 UTC. Time now 2014-Sep-19 23:55 UTC.
Position N 38°05' E 001°28'.

Length 101 m; draft 6.5 m.

Type: Cargo ship. MMSI: 246227000.

Date/timePositionNaut miles runAvg speedWind from/ knotsBaromVisibWave heightAir tempDewpointWater temp
2014-Sep-19 21:33N 38°05' E 001°28'1310.1
2014-Sep-19 20:16N 37°59' E 001°14'810.1
2014-Sep-19 19:32N 37°55' E 001°06'2010.1
2014-Sep-19 17:32N 37°45' E 000°44'1010.4
2014-Sep-19 16:32N 37°39' E 000°32'1010.5
2014-Sep-19 15:33N 37°34' E 000°21'1010.4
2014-Sep-19 14:33N 37°29' E 000°10'1010.3
2014-Sep-19 13:33N 37°24' W 000°01'1110.2
2014-Sep-19 12:31N 37°18' W 000°13'3210.1
2014-Sep-19 09:21N 37°02' W 000°47'810.1
2014-Sep-19 08:34N 36°58' W 000°56'22511.1
2014-Sep-18 12:13N 35°58' W 005°26'  
2014-Sep-12 23:16N 50°36' E 000°21'6 7.7
2014-Sep-12 22:33N 50°37' E 000°30'9 9.0
2014-Sep-12 21:33N 50°42' E 000°42'1111.1
2014-Sep-12 20:32N 50°48' E 000°57'2811.8
2014-Sep-12 18:09N 51°07' E 001°31'6 9.6
2014-Sep-12 17:33N 51°10' E 001°38'9 8.8
2014-Sep-12 16:34N 51°16' E 001°48'8 8.1
2014-Sep-12 15:33N 51°23' E 001°56'8 7.6
2014-Sep-12 14:31N 51°23' E 002°09'8 8.7
2014-Sep-12 13:33N 51°22' E 002°22'9 9.5
2014-Sep-12 12:33N 51°23' E 002°37'1110.1
2014-Sep-12 11:29N 51°23' E 002°54'1211.6
2014-Sep-12 10:26N 51°25' E 003°14'1011.7
2014-Sep-12 09:33N 51°25' E 003°30'1111.3
2014-Sep-12 08:34N 51°21' E 003°47'2 2.5
2014-Sep-12 07:33N 51°19' E 003°49'4 4.0
2014-Sep-12 06:33N 51°15' E 003°50'3 2.5
2014-Sep-12 05:33N 51°13' E 003°48'3 2.3
2014-Sep-12 04:29N 51°11' E 003°48'0 0.0
2014-Sep-12 03:32N 51°11' E 003°48'0 0.0
2014-Sep-12 02:30N 51°11' E 003°48'0 0.0
2014-Sep-12 01:32N 51°11' E 003°48'0 0.0
2014-Sep-12 00:28N 51°11' E 003°48'0 0.0
2014-Sep-11 23:32N 51°11' E 003°48'0 0.0
2014-Sep-11 22:30N 51°11' E 003°48'0 0.0
2014-Sep-11 21:32N 51°11' E 003°48'0 0.0
2014-Sep-11 20:31N 51°11' E 003°48'0 0.0
2014-Sep-11 19:28N 51°11' E 003°48'0 0.0
2014-Sep-11 18:33N 51°11' E 003°48'0 0.0
2014-Sep-11 17:32N 51°11' E 003°48'0 0.0
2014-Sep-11 16:29N 51°11' E 003°48'0 0.0
2014-Sep-11 15:32N 51°11' E 003°48'0 0.0
2014-Sep-11 14:28N 51°11' E 003°48'0 0.0
2014-Sep-11 13:32N 51°11' E 003°48'0 0.0
2014-Sep-11 12:32N 51°11' E 003°48'0 0.0
2014-Sep-11 11:30N 51°11' E 003°48'0 0.0
2014-Sep-11 10:33N 51°11' E 003°48'0 0.0
2014-Sep-11 09:32N 51°11' E 003°48'0 0.0
2014-Sep-11 08:31N 51°11' E 003°48'0 0.0
2014-Sep-11 07:31N 51°11' E 003°48'0 0.0
2014-Sep-11 06:31N 51°11' E 003°48'0 0.0
2014-Sep-11 05:29N 51°11' E 003°48'0 0.0
2014-Sep-11 04:33N 51°11' E 003°48'0 0.0
2014-Sep-11 03:28N 51°11' E 003°48'0 0.0
2014-Sep-11 02:31N 51°11' E 003°48'0 0.0
2014-Sep-11 01:30N 51°11' E 003°48'0 0.0
2014-Sep-11 00:29N 51°11' E 003°48'0 0.0
2014-Sep-10 23:29N 51°11' E 003°48'0 0.0
2014-Sep-10 22:32N 51°11' E 003°48'0 0.0
2014-Sep-10 21:26N 51°11' E 003°48'3 3.7
2014-Sep-10 20:33N 51°14' E 003°48'6 5.9
2014-Sep-10 19:34N 51°20' E 003°49'1 0.9
2014-Sep-10 18:33N 51°21' E 003°49'5 5.0
2014-Sep-10 17:33N 51°24' E 003°43'5 4.8
2014-Sep-10 16:33N 51°26' E 003°36'7 7.2
2014-Sep-10 15:33N 51°31' E 003°27'1110.5
2014-Sep-10 14:33N 51°40' E 003°19'24 7.7
2014-Sep-10 11:26N 51°52' E 002°45'6513.1
2014-Sep-10 06:29N 52°55' E 002°26'6410.7
2014-Sep-10 00:28N 53°40' E 001°08'1111.7
2014-Sep-09 23:31N 53°36' E 000°50'1212.2
2014-Sep-09 22:33N 53°33' E 000°31'1211.9
2014-Sep-09 21:34N 53°32' E 000°12'  

Dump ship's entire track history